Turbat Weather



Turbat's Current Weather

Temprature 18.32o clear sky

clear sky

Rain: 0 %

Min Temprature18.32o
Max Temprature18.32o
Humidity56
Wind Speed1.15 m/h
Sun Rise07:26:24
Sun Set17:58:10
Current Time: 14-Dec-2019 08:13:40
Lat/Lon: 26, 63.05




Turbat's Geo Location



Turbat's Weather Forecast

Time Overall Temp Min Temp Max Temp Humidity Wind Speed Rain
14-Dec-2019 (Sat)
11:00:00 clear sky 22.080 22.080 22.080 49 0.48 m/h 0 %
14:00:00 clear sky 24.440 24.440 24.440 42 3.28 m/h 0 %
17:00:00 clear sky 24.420 24.420 24.420 44 3.75 m/h 0 %
20:00:00 scattered clouds 22.860 22.860 22.860 49 2.26 m/h 0 %
23:00:00 light rain 20.720 20.720 20.720 69 1.66 m/h 25 %
15-Dec-2019 (Sun)
02:00:00 light rain 20.670 20.670 20.670 60 1.18 m/h 81 %
05:00:00 light rain 19.500 19.500 19.500 37 2.76 m/h 13 %
08:00:00 few clouds 18.940 18.940 18.940 34 3.68 m/h 0 %
11:00:00 clear sky 23.520 23.520 23.520 24 5.04 m/h 0 %
14:00:00 scattered clouds 25.170 25.170 25.170 25 0.93 m/h 0 %
17:00:00 broken clouds 25.390 25.390 25.390 24 1.44 m/h 0 %
20:00:00 overcast clouds 22.390 22.390 22.390 42 5.27 m/h 0 %
23:00:00 overcast clouds 20.820 20.820 20.820 57 3.31 m/h 0 %
16-Dec-2019 (Mon)
02:00:00 broken clouds 19.810 19.810 19.810 70 2.24 m/h 0 %
05:00:00 scattered clouds 18.980 18.980 18.980 73 1.83 m/h 0 %
08:00:00 clear sky 19.000 19.000 19.000 71 2.27 m/h 0 %
11:00:00 clear sky 22.620 22.620 22.620 52 3.09 m/h 0 %
14:00:00 clear sky 24.690 24.690 24.690 38 4.01 m/h 0 %
17:00:00 scattered clouds 23.920 23.920 23.920 42 4.03 m/h 0 %
20:00:00 overcast clouds 21.960 21.960 21.960 52 5.15 m/h 0 %
23:00:00 broken clouds 20.330 20.330 20.330 60 0.33 m/h 0 %
17-Dec-2019 (Tue)
02:00:00 broken clouds 19.140 19.140 19.140 64 0.72 m/h 0 %
05:00:00 scattered clouds 18.200 18.200 18.200 67 1 m/h 0 %
08:00:00 scattered clouds 18.480 18.480 18.480 64 1.41 m/h 0 %
11:00:00 broken clouds 21.960 21.960 21.960 48 1.19 m/h 0 %
14:00:00 overcast clouds 24.210 24.210 24.210 39 2.95 m/h 0 %
17:00:00 overcast clouds 24.420 24.420 24.420 38 3.36 m/h 0 %
20:00:00 broken clouds 21.260 21.260 21.260 55 5.24 m/h 0 %
23:00:00 broken clouds 20.200 20.200 20.200 61 1.58 m/h 0 %
18-Dec-2019 (Wed)
02:00:00 broken clouds 19.150 19.150 19.150 65 0.23 m/h 0 %
05:00:00 broken clouds 18.350 18.350 18.350 68 0.34 m/h 0 %
08:00:00 overcast clouds 18.480 18.480 18.480 68 0.4 m/h 0 %
11:00:00 overcast clouds 21.500 21.500 21.500 56 2.03 m/h 0 %
14:00:00 overcast clouds 23.910 23.910 23.910 46 3.57 m/h 0 %
17:00:00 broken clouds 24.740 24.740 24.740 42 4.53 m/h 0 %
20:00:00 clear sky 22.610 22.610 22.610 49 3.18 m/h 0 %
23:00:00 clear sky 21.150 21.150 21.150 56 2.67 m/h 0 %
19-Dec-2019 (Thu)
02:00:00 clear sky 19.710 19.710 19.710 65 1.79 m/h 0 %
05:00:00 clear sky 18.790 18.790 18.790 69 0.47 m/h 0 %
08:00:00 overcast clouds 19.440 19.440 19.440 62 1.36 m/h 0 %

Famous Cities (61)